Time;durP1;ratioP1;P1;durP2;ratioP2;P2;SDS_P1;SDS_P2;PMS_P1;PMS_P2;Temp;Humidity;BMP_temperature;BMP_pressure;BME280_temperature;BME280_humidity;BME280_pressure;Samples;Min_cycle;Max_cycle;Signal;HPM_P1;HPM_P2
2022/10/31 00:02:12;;;;;;;;;;;;;;;;;;4894735;29;20330;-77
2022/10/31 00:04:37;;;;;;;;;;;;;;;;;;4911310;29;19975;-77
2022/10/31 00:07:03;;;;;;;;;;;;;;;;;;4930490;29;19939;-76
2022/10/31 00:09:28;;;;;;;;;;;;;;;;;;4947845;29;20434;-78
2022/10/31 00:11:57;;;;;;;;;;;;;;;;;;4895035;29;20005;-76
2022/10/31 00:14:23;;;;;;;;;;;;;;;;;;4927366;29;19937;-76
2022/10/31 00:16:48;;;;;;;;;;;;;;;;;;4926896;29;20387;-78
2022/10/31 00:19:14;;;;;;;;;;;;;;;;;;4928118;29;20379;-78
2022/10/31 00:21:39;;;;;;;;;;;;;;;;;;4929157;29;19919;-78
2022/10/31 00:24:05;;;;;;;;;;;;;;;;;;4945016;29;19976;-77
2022/10/31 00:26:30;;;;;;;;;;;;;;;;;;4912486;29;20412;-77
2022/10/31 00:28:57;;;;;;;;;;;;;;;;;;4928053;29;19918;-76
2022/10/31 00:31:22;;;;;;;;;;;;;;;;;;4897770;29;19986;-78
2022/10/31 00:33:48;;;;;;;;;;;;;;;;;;4912434;29;19915;-77
2022/10/31 00:36:16;;;;;;;;;;;;;;;;;;4913032;29;20037;-77
2022/10/31 00:38:41;;;;;;;;;;;;;;;;;;4911120;29;20382;-76
2022/10/31 00:41:07;;;;;;;;;;;;;;;;;;4926858;29;20286;-78
2022/10/31 00:43:33;;;;;;;;;;;;;;;;;;4942413;29;20021;-78
2022/10/31 00:45:58;;;;;;;;;;;;;;;;;;4911997;29;19915;-77
2022/10/31 00:48:23;;;;;;;;;;;;;;;;;;4944411;29;20279;-78
2022/10/31 00:50:49;;;;;;;;;;;;;;;;;;4925706;29;19926;-76
2022/10/31 00:53:14;;;;;;;;;;;;;;;;;;4924721;29;19915;-78
2022/10/31 00:55:40;;;;;;;;;;;;;;;;;;4926946;29;19922;-76
2022/10/31 00:58:06;;;;;;;;;;;;;;;;;;4943734;29;19915;-77
2022/10/31 01:00:32;;;;;;;;;;;;;;;;;;4925857;29;20030;-76
2022/10/31 01:02:57;;;;;;;;;;;;;;;;;;4941022;29;19926;-76
2022/10/31 01:05:23;;;;;;;;;;;;;;;;;;4907656;29;19915;-78
2022/10/31 01:07:48;;;;;;;;;;;;;;;;;;4904336;29;19934;-77
2022/10/31 01:10:14;;;;;;;;;;;;;;;;;;4939987;29;20301;-77
2022/10/31 01:12:39;;;;;;;;;;;;;;;;;;4940304;29;19962;-76
2022/10/31 01:15:05;;;;;;;;;;;;;;;;;;4942451;29;19915;-77
2022/10/31 01:17:30;;;;;;;;;;;;;;;;;;4943190;29;19950;-77
2022/10/31 01:19:56;;;;;;;;;;;;;;;;;;4910583;29;20001;-76
2022/10/31 01:22:22;;;;;;;;;;;;;;;;;;4943069;29;19915;-75
2022/10/31 01:24:49;;;;;;;;;;;;;;;;;;4913367;29;19915;-76
2022/10/31 01:27:14;;;;;;;;;;;;;;;;;;4912946;29;19938;-76
2022/10/31 01:29:40;;;;;;;;;;;;;;;;;;4929221;29;19921;-77
2022/10/31 01:32:05;;;;;;;;;;;;;;;;;;4927331;29;19914;-76
2022/10/31 01:34:31;;;;;;;;;;;;;;;;;;4941978;29;19915;-76
2022/10/31 01:36:57;;;;;;;;;;;;;;;;;;4925898;29;19915;-77
2022/10/31 01:39:22;;;;;;;;;;;;;;;;;;4926350;29;19919;-77
2022/10/31 01:41:48;;;;;;;;;;;;;;;;;;4911119;29;19919;-76
2022/10/31 01:44:13;;;;;;;;;;;;;;;;;;4911475;29;19915;-76
2022/10/31 01:46:42;;;;;;;;;;;;;;;;;;4895951;29;19922;-76
2022/10/31 01:49:07;;;;;;;;;;;;;;;;;;4912936;29;19970;-76
2022/10/31 01:51:33;;;;;;;;;;;;;;;;;;4912579;29;19918;-76
2022/10/31 01:53:58;;;;;;;;;;;;;;;;;;4922991;29;20076;-77
2022/10/31 01:56:24;;;;;;;;;;;;;;;;;;4923083;29;19914;-77
2022/10/31 01:58:49;;;;;;;;;;;;;;;;;;4891322;29;19929;-76
2022/10/31 02:01:15;;;;;;;;;;;;;;;;;;4922482;29;20006;-77
2022/10/31 02:03:41;;;;;;;;;;;;;;;;;;4922509;29;19914;-77
2022/10/31 02:06:06;;;;;;;;;;;;;;;;;;4939645;29;19962;-79
2022/10/31 02:08:32;;;;;;;;;;;;;;;;;;4922855;29;19975;-77
2022/10/31 02:10:58;;;;;;;;;;;;;;;;;;4922546;29;19915;-76
2022/10/31 02:13:23;;;;;;;;;;;;;;;;;;4922400;29;20276;-77
2022/10/31 02:15:49;;;;;;;;;;;;;;;;;;4906213;29;19938;-77
2022/10/31 02:18:14;;;;;;;;;;;;;;;;;;4922402;29;20029;-77
2022/10/31 02:20:42;;;;;;;;;;;;;;;;;;4906952;29;20394;-78
2022/10/31 02:23:07;;;;;;;;;;;;;;;;;;4905429;29;19918;-77
2022/10/31 02:25:33;;;;;;;;;;;;;;;;;;4890720;29;19915;-78
2022/10/31 02:27:59;;;;;;;;;;;;;;;;;;4907216;29;19915;-75
2022/10/31 02:30:25;;;;;;;;;;;;;;;;;;4892028;29;19915;-76
2022/10/31 02:32:51;;;;;;;;;;;;;;;;;;4908804;29;19915;-77
2022/10/31 02:35:17;;;;;;;;;;;;;;;;;;4909110;29;19915;-76
2022/10/31 02:37:42;;;;;;;;;;;;;;;;;;4924712;29;19914;-75
2022/10/31 02:40:08;;;;;;;;;;;;;;;;;;4924178;29;20003;-76
2022/10/31 02:42:57;;;;;;;;;;;;;;;;;;4898495;29;19915;-77
2022/10/31 02:45:23;;;;;;;;;;;;;;;;;;4905799;29;19922;-78
2022/10/31 02:47:48;;;;;;;;;;;;;;;;;;4906901;29;19915;-76
2022/10/31 02:50:14;;;;;;;;;;;;;;;;;;4939906;29;20382;-78
2022/10/31 02:52:40;;;;;;;;;;;;;;;;;;4927079;29;19978;-77
2022/10/31 02:55:05;;;;;;;;;;;;;;;;;;4927358;29;19911;-77
2022/10/31 02:57:31;;;;;;;;;;;;;;;;;;4912808;29;19950;-78
2022/10/31 02:59:56;;;;;;;;;;;;;;;;;;4928658;29;20070;-77
2022/10/31 03:02:26;;;;;;;;;;;;;;;;;;4915276;29;19915;-77
2022/10/31 03:04:57;;;;;;;;;;;;;;;;;;4917742;29;19918;-78
2022/10/31 03:07:23;;;;;;;;;;;;;;;;;;4949363;29;19939;-77
2022/10/31 03:09:48;;;;;;;;;;;;;;;;;;4929129;29;19911;-77
2022/10/31 03:12:13;;;;;;;;;;;;;;;;;;4915060;29;19919;-77
2022/10/31 03:14:39;;;;;;;;;;;;;;;;;;4914830;29;19919;-76
2022/10/31 03:17:05;;;;;;;;;;;;;;;;;;4900195;29;19915;-76
2022/10/31 03:19:30;;;;;;;;;;;;;;;;;;4911661;29;19919;-77
2022/10/31 03:21:55;;;;;;;;;;;;;;;;;;4925826;29;19925;-78
2022/10/31 03:24:21;;;;;;;;;;;;;;;;;;4982056;23;19933;-82
2022/10/31 03:26:46;;;;;;;;;;;;;;;;;;4986591;28;19917;-83
2022/10/31 03:29:12;;;;;;;;;;;;;;;;;;4987504;28;19914;-82
2022/10/31 03:31:39;;;;;;;;;;;;;;;;;;5005093;28;19920;-81
2022/10/31 03:34:05;;;;;;;;;;;;;;;;;;4990755;28;19914;-81
2022/10/31 03:36:31;;;;;;;;;;;;;;;;;;5002843;28;19941;-81
2022/10/31 03:38:57;;;;;;;;;;;;;;;;;;5003050;28;19918;-81
2022/10/31 03:41:22;;;;;;;;;;;;;;;;;;5000250;28;20199;-82
2022/10/31 03:43:48;;;;;;;;;;;;;;;;;;4976889;28;19914;-82
2022/10/31 03:46:13;;;;;;;;;;;;;;;;;;4977205;28;20369;-83
2022/10/31 03:48:38;;;;;;;;;;;;;;;;;;4993180;28;19914;-83
2022/10/31 03:51:04;;;;;;;;;;;;;;;;;;4992969;28;20432;-84
2022/10/31 03:53:29;;;;;;;;;;;;;;;;;;4976554;28;19914;-82
2022/10/31 03:55:54;;;;;;;;;;;;;;;;;;4992812;28;20441;-84
2022/10/31 03:58:20;;;;;;;;;;;;;;;;;;4993921;28;20016;-82
2022/10/31 04:00:45;;;;;;;;;;;;;;;;;;4992756;28;19917;-82
2022/10/31 04:03:11;;;;;;;;;;;;;;;;;;4992334;28;20381;-82
2022/10/31 04:05:37;;;;;;;;;;;;;;;;;;4992707;28;20001;-83
2022/10/31 04:08:02;;;;;;;;;;;;;;;;;;4992683;28;19946;-82
2022/10/31 04:10:30;;;;;;;;;;;;;;;;;;4992742;28;20328;-83
2022/10/31 04:12:57;;;;;;;;;;;;;;;;;;4991967;28;19968;-82
2022/10/31 04:15:26;;;;;;;;;;;;;;;;;;4993052;28;19914;-84
2022/10/31 04:17:52;;;;;;;;;;;;;;;;;;4978339;28;19918;-82
2022/10/31 04:20:17;;;;;;;;;;;;;;;;;;4998449;28;20439;-84
2022/10/31 04:22:42;;;;;;;;;;;;;;;;;;4998724;28;19913;-81
2022/10/31 04:25:08;;;;;;;;;;;;;;;;;;4998956;28;19918;-81
2022/10/31 04:27:33;;;;;;;;;;;;;;;;;;5000508;28;19956;-80
2022/10/31 04:29:59;;;;;;;;;;;;;;;;;;4986712;28;19921;-81
2022/10/31 04:32:28;;;;;;;;;;;;;;;;;;4998542;28;19953;-82
2022/10/31 04:34:54;;;;;;;;;;;;;;;;;;4994157;28;19920;-82
2022/10/31 04:37:19;;;;;;;;;;;;;;;;;;4992854;28;19952;-82
2022/10/31 04:39:45;;;;;;;;;;;;;;;;;;5002157;28;19918;-82
2022/10/31 04:42:30;;;;;;;;;;;;;;;;;;5002787;28;19913;-82
2022/10/31 04:44:56;;;;;;;;;;;;;;;;;;4992558;28;20448;-82
2022/10/31 04:47:22;;;;;;;;;;;;;;;;;;4995704;28;19945;-83
2022/10/31 04:49:47;;;;;;;;;;;;;;;;;;4983020;28;19914;-81
2022/10/31 04:52:13;;;;;;;;;;;;;;;;;;4997705;28;19914;-81
2022/10/31 04:54:38;;;;;;;;;;;;;;;;;;4979874;28;19914;-81
2022/10/31 04:57:23;;;;;;;;;;;;;;;;;;4984720;28;19963;-81
2022/10/31 04:59:48;;;;;;;;;;;;;;;;;;4997961;28;20015;-80
2022/10/31 05:02:17;;;;;;;;;;;;;;;;;;4997571;28;19913;-82
2022/10/31 05:04:52;;;;;;;;;;;;;;;;;;5000201;28;19913;-82
2022/10/31 05:07:18;;;;;;;;;;;;;;;;;;4982564;28;19929;-81
2022/10/31 05:09:43;;;;;;;;;;;;;;;;;;4999833;28;20292;-82
2022/10/31 05:12:08;;;;;;;;;;;;;;;;;;5001419;28;19914;-83
2022/10/31 05:14:54;;;;;;;;;;;;;;;;;;4938348;28;19921;-81
2022/10/31 05:17:38;;;;;;;;;;;;;;;;;;5001530;28;19914;-81
2022/10/31 05:20:24;;;;;;;;;;;;;;;;;;4996314;28;19964;-80
2022/10/31 05:23:12;;;;;;;;;;;;;;;;;;4998572;28;19921;-83
2022/10/31 05:25:37;;;;;;;;;;;;;;;;;;5002104;28;19949;-80
2022/10/31 05:28:03;;;;;;;;;;;;;;;;;;4985653;28;20399;-80
2022/10/31 05:30:28;;;;;;;;;;;;;;;;;;5000220;28;19937;-81
2022/10/31 05:32:54;;;;;;;;;;;;;;;;;;5001956;28;19937;-80
2022/10/31 05:35:42;;;;;;;;;;;;;;;;;;4990107;28;19914;-80
2022/10/31 05:38:46;;;;;;;;;;;;;;;;;;4991956;28;19937;-81
2022/10/31 05:41:20;;;;;;;;;;;;;;;;;;4985961;28;19913;-80
2022/10/31 05:43:46;;;;;;;;;;;;;;;;;;5000859;28;19960;-81
2022/10/31 05:46:12;;;;;;;;;;;;;;;;;;4984882;28;19921;-80
2022/10/31 05:49:07;;;;;;;;;;;;;;;;;;5001353;28;19917;-80
2022/10/31 05:51:59;;;;;;;;;;;;;;;;;;4992863;28;20289;-81
2022/10/31 05:54:32;;;;;;;;;;;;;;;;;;5000590;28;19914;-81
2022/10/31 05:56:58;;;;;;;;;;;;;;;;;;5002024;28;19914;-81
2022/10/31 05:59:23;;;;;;;;;;;;;;;;;;4985398;28;19924;-81
2022/10/31 06:01:49;;;;;;;;;;;;;;;;;;5002279;28;19914;-81
2022/10/31 06:04:44;;;;;;;;;;;;;;;;;;4992313;28;19914;-81
2022/10/31 06:07:09;;;;;;;;;;;;;;;;;;4989843;28;19920;-82
2022/10/31 06:09:34;;;;;;;;;;;;;;;;;;4987821;28;20373;-81
2022/10/31 06:12:00;;;;;;;;;;;;;;;;;;5001022;28;19921;-80
2022/10/31 06:14:25;;;;;;;;;;;;;;;;;;5000264;28;19914;-81
2022/10/31 06:16:53;;;;;;;;;;;;;;;;;;5001124;28;19918;-80
2022/10/31 06:19:38;;;;;;;;;;;;;;;;;;4984018;28;19925;-80
2022/10/31 06:22:04;;;;;;;;;;;;;;;;;;4997404;28;19914;-81
2022/10/31 06:24:31;;;;;;;;;;;;;;;;;;4982011;28;20282;-81
2022/10/31 06:27:05;;;;;;;;;;;;;;;;;;5000189;28;19937;-81
2022/10/31 06:29:31;;;;;;;;;;;;;;;;;;4999943;28;19914;-81
2022/10/31 06:32:01;;;;;;;;;;;;;;;;;;4999214;28;19930;-81
2022/10/31 06:34:28;;;;;;;;;;;;;;;;;;4996915;28;19968;-82
2022/10/31 06:36:54;;;;;;;;;;;;;;;;;;4999465;28;19910;-80
2022/10/31 06:39:22;;;;;;;;;;;;;;;;;;4997367;28;19918;-80
2022/10/31 06:41:48;;;;;;;;;;;;;;;;;;4996286;28;20056;-81
2022/10/31 06:44:14;;;;;;;;;;;;;;;;;;4995879;28;19920;-81
2022/10/31 06:46:58;;;;;;;;;;;;;;;;;;4997609;28;19949;-80
2022/10/31 06:49:46;;;;;;;;;;;;;;;;;;4983603;28;19945;-80
2022/10/31 06:52:14;;;;;;;;;;;;;;;;;;4995479;28;19913;-81
2022/10/31 06:54:40;;;;;;;;;;;;;;;;;;4996038;28;19914;-81
2022/10/31 06:57:05;;;;;;;;;;;;;;;;;;4995594;28;20012;-81
2022/10/31 06:59:31;;;;;;;;;;;;;;;;;;4996175;28;19925;-80
2022/10/31 07:02:35;;;;;;;;;;;;;;;;;;4992520;28;20262;-80
2022/10/31 07:05:00;;;;;;;;;;;;;;;;;;4997810;28;19925;-81
2022/10/31 07:07:26;;;;;;;;;;;;;;;;;;4999361;28;20110;-81
2022/10/31 07:09:51;;;;;;;;;;;;;;;;;;4997146;28;19937;-81
2022/10/31 07:12:22;;;;;;;;;;;;;;;;;;4997613;28;19937;-81
2022/10/31 07:14:54;;;;;;;;;;;;;;;;;;4997698;28;19914;-81
2022/10/31 07:17:20;;;;;;;;;;;;;;;;;;4999694;28;19961;-81
2022/10/31 07:19:45;;;;;;;;;;;;;;;;;;4997660;28;19918;-81
2022/10/31 07:22:12;;;;;;;;;;;;;;;;;;4994309;28;20000;-81
2022/10/31 07:24:40;;;;;;;;;;;;;;;;;;4978539;28;20391;-81
2022/10/31 07:27:44;;;;;;;;;;;;;;;;;;4993472;28;19914;-79
2022/10/31 07:30:11;;;;;;;;;;;;;;;;;;4999132;28;19921;-80
2022/10/31 07:32:37;;;;;;;;;;;;;;;;;;4983099;28;19925;-81
2022/10/31 07:35:02;;;;;;;;;;;;;;;;;;5002287;28;19913;-81
2022/10/31 07:37:38;;;;;;;;;;;;;;;;;;5000447;28;19920;-80
2022/10/31 07:40:04;;;;;;;;;;;;;;;;;;4997578;28;20400;-80
2022/10/31 07:42:30;;;;;;;;;;;;;;;;;;4996562;28;19913;-80
2022/10/31 07:44:55;;;;;;;;;;;;;;;;;;5000768;28;19925;-80
2022/10/31 07:47:41;;;;;;;;;;;;;;;;;;5000369;28;19910;-80
2022/10/31 07:50:25;;;;;;;;;;;;;;;;;;5001991;28;19941;-80
2022/10/31 07:53:25;;;;;;;;;;;;;;;;;;4986598;28;19914;-80
2022/10/31 07:55:53;;;;;;;;;;;;;;;;;;5001537;28;19917;-79
2022/10/31 07:58:19;;;;;;;;;;;;;;;;;;5003625;28;19914;-80
2022/10/31 08:00:45;;;;;;;;;;;;;;;;;;4984585;28;19918;-81
2022/10/31 08:03:13;;;;;;;;;;;;;;;;;;5000936;28;19921;-81
2022/10/31 08:05:51;;;;;;;;;;;;;;;;;;4983303;28;19914;-83
2022/10/31 08:08:42;;;;;;;;;;;;;;;;;;4991274;28;19914;-82
2022/10/31 08:11:08;;;;;;;;;;;;;;;;;;4993283;28;20336;-81
2022/10/31 08:13:34;;;;;;;;;;;;;;;;;;4993017;28;19920;-79
2022/10/31 08:16:03;;;;;;;;;;;;;;;;;;4976596;28;19996;-83
2022/10/31 08:18:29;;;;;;;;;;;;;;;;;;4992864;28;20369;-79
2022/10/31 08:20:55;;;;;;;;;;;;;;;;;;4992908;28;19921;-83
2022/10/31 08:23:20;;;;;;;;;;;;;;;;;;4992071;28;19918;-82
2022/10/31 08:25:47;;;;;;;;;;;;;;;;;;4976426;28;19917;-81
2022/10/31 08:28:12;;;;;;;;;;;;;;;;;;4992639;28;19914;-81
2022/10/31 08:30:40;;;;;;;;;;;;;;;;;;4992382;28;19960;-82
2022/10/31 08:33:24;;;;;;;;;;;;;;;;;;4993295;28;20008;-81
2022/10/31 08:36:24;;;;;;;;;;;;;;;;;;4993859;28;19953;-81
2022/10/31 08:39:16;;;;;;;;;;;;;;;;;;4977991;28;19976;-82
2022/10/31 08:41:41;;;;;;;;;;;;;;;;;;4992665;28;19914;-84
2022/10/31 08:44:10;;;;;;;;;;;;;;;;;;4983146;28;20364;-80
2022/10/31 08:46:36;;;;;;;;;;;;;;;;;;5004896;28;19921;-81
2022/10/31 08:49:01;;;;;;;;;;;;;;;;;;4993044;28;19921;-81
2022/10/31 08:51:27;;;;;;;;;;;;;;;;;;4976453;28;19913;-79
2022/10/31 08:53:54;;;;;;;;;;;;;;;;;;4991715;28;19913;-79
2022/10/31 08:56:32;;;;;;;;;;;;;;;;;;4993441;28;19957;-82
2022/10/31 08:58:58;;;;;;;;;;;;;;;;;;4991564;28;19992;-81
2022/10/31 09:01:34;;;;;;;;;;;;;;;;;;4992191;28;20357;-81
2022/10/31 09:04:00;;;;;;;;;;;;;;;;;;4991653;28;19921;-81
2022/10/31 09:06:25;;;;;;;;;;;;;;;;;;4991732;28;20382;-81
2022/10/31 09:08:52;;;;;;;;;;;;;;;;;;4992395;28;19914;-80
2022/10/31 09:11:17;;;;;;;;;;;;;;;;;;4992104;28;19920;-80
2022/10/31 09:14:02;;;;;;;;;;;;;;;;;;4993131;28;20061;-80
2022/10/31 09:16:59;;;;;;;;;;;;;;;;;;4993451;28;19917;-80
2022/10/31 09:19:38;;;;;;;;;;;;;;;;;;4994116;28;20008;-80
2022/10/31 09:22:04;;;;;;;;;;;;;;;;;;4992098;28;19914;-82
2022/10/31 09:24:31;;;;;;;;;;;;;;;;;;4975338;28;19924;-80
2022/10/31 09:26:58;;;;;;;;;;;;;;;;;;4991960;28;19948;-79
2022/10/31 09:29:25;;;;;;;;;;;;;;;;;;4991802;28;19914;-82
2022/10/31 09:31:56;;;;;;;;;;;;;;;;;;4993204;28;19914;-81
2022/10/31 09:34:26;;;;;;;;;;;;;;;;;;4992566;28;20452;-82
2022/10/31 09:37:13;;;;;;;;;;;;;;;;;;4991696;28;20017;-82
2022/10/31 09:39:39;;;;;;;;;;;;;;;;;;4991847;28;19997;-79
2022/10/31 09:42:15;;;;;;;;;;;;;;;;;;4979780;28;19917;-82
2022/10/31 09:44:41;;;;;;;;;;;;;;;;;;4988539;28;19920;-82
2022/10/31 09:47:11;;;;;;;;;;;;;;;;;;4996880;28;19910;-82
2022/10/31 09:49:41;;;;;;;;;;;;;;;;;;4975403;28;20102;-81
2022/10/31 09:52:06;;;;;;;;;;;;;;;;;;4976805;28;19925;-81
2022/10/31 09:54:31;;;;;;;;;;;;;;;;;;4993286;28;19917;-81
2022/10/31 09:56:57;;;;;;;;;;;;;;;;;;4979489;28;19918;-81
2022/10/31 09:59:22;;;;;;;;;;;;;;;;;;4995928;28;20273;-82
2022/10/31 10:01:48;;;;;;;;;;;;;;;;;;4992498;28;20273;-81
2022/10/31 10:04:13;;;;;;;;;;;;;;;;;;4992359;28;19921;-79
2022/10/31 10:07:05;;;;;;;;;;;;;;;;;;4991636;28;19914;-80
2022/10/31 10:09:53;;;;;;;;;;;;;;;;;;4992447;28;19922;-82
2022/10/31 10:12:37;;;;;;;;;;;;;;;;;;4994265;28;19917;-81
2022/10/31 10:15:02;;;;;;;;;;;;;;;;;;4994877;28;20323;-80
2022/10/31 10:17:28;;;;;;;;;;;;;;;;;;4995760;28;19914;-83
2022/10/31 10:19:53;;;;;;;;;;;;;;;;;;4994266;28;19924;-83
2022/10/31 10:22:19;;;;;;;;;;;;;;;;;;4995290;28;19914;-82
2022/10/31 10:24:44;;;;;;;;;;;;;;;;;;4994324;28;20394;-82
2022/10/31 10:27:09;;;;;;;;;;;;;;;;;;4995395;28;19910;-81
2022/10/31 10:29:35;;;;;;;;;;;;;;;;;;4995176;28;20404;-82
2022/10/31 10:32:00;;;;;;;;;;;;;;;;;;4994345;28;19914;-82
2022/10/31 10:34:25;;;;;;;;;;;;;;;;;;4994812;28;20393;-82
2022/10/31 10:36:51;;;;;;;;;;;;;;;;;;4995225;28;19914;-82
2022/10/31 10:39:16;;;;;;;;;;;;;;;;;;4993966;28;19922;-82
2022/10/31 10:41:41;;;;;;;;;;;;;;;;;;4993949;28;19965;-81
2022/10/31 10:44:07;;;;;;;;;;;;;;;;;;4977502;28;20364;-81
2022/10/31 10:49:17;;;;;;;;;;;;;;;;;;4994769;28;19965;-82
2022/10/31 10:51:43;;;;;;;;;;;;;;;;;;4977670;28;19937;-81
2022/10/31 10:54:13;;;;;;;;;;;;;;;;;;4994532;28;19917;-80
2022/10/31 10:56:38;;;;;;;;;;;;;;;;;;4994836;28;19917;-81
2022/10/31 10:59:04;;;;;;;;;;;;;;;;;;4977397;28;19925;-81
2022/10/31 11:01:29;;;;;;;;;;;;;;;;;;4993655;28;19914;-81
2022/10/31 11:03:55;;;;;;;;;;;;;;;;;;4993445;28;19914;-80
2022/10/31 11:06:25;;;;;;;;;;;;;;;;;;4962117;28;19918;-80
2022/10/31 11:08:51;;;;;;;;;;;;;;;;;;4993718;28;19914;-81
2022/10/31 11:11:16;;;;;;;;;;;;;;;;;;4993890;28;19993;-81
2022/10/31 11:13:42;;;;;;;;;;;;;;;;;;4994368;28;20289;-80
2022/10/31 11:16:07;;;;;;;;;;;;;;;;;;4993661;28;19914;-81
2022/10/31 11:18:32;;;;;;;;;;;;;;;;;;4994543;28;19956;-80
2022/10/31 11:20:58;;;;;;;;;;;;;;;;;;4993845;28;20348;-80
2022/10/31 11:23:23;;;;;;;;;;;;;;;;;;4992586;28;19928;-81
2022/10/31 11:25:49;;;;;;;;;;;;;;;;;;4995044;28;20286;-80
2022/10/31 11:28:14;;;;;;;;;;;;;;;;;;4994462;28;19913;-80
2022/10/31 11:30:40;;;;;;;;;;;;;;;;;;4994688;28;19914;-80
2022/10/31 11:33:05;;;;;;;;;;;;;;;;;;4994422;28;19918;-80
2022/10/31 11:35:31;;;;;;;;;;;;;;;;;;4994775;28;19913;-86
2022/10/31 11:37:58;;;;;;;;;;;;;;;;;;4997076;28;19998;-79
2022/10/31 11:40:23;;;;;;;;;;;;;;;;;;4990423;28;20324;-79
2022/10/31 11:42:52;;;;;;;;;;;;;;;;;;4985954;28;20044;-80
2022/10/31 11:45:17;;;;;;;;;;;;;;;;;;4977440;28;19918;-80
2022/10/31 11:47:43;;;;;;;;;;;;;;;;;;4994244;28;19920;-79
2022/10/31 11:50:08;;;;;;;;;;;;;;;;;;4993886;28;19976;-80
2022/10/31 11:52:33;;;;;;;;;;;;;;;;;;4993622;28;20393;-81
2022/10/31 11:54:59;;;;;;;;;;;;;;;;;;4992633;28;20361;-81
2022/10/31 11:57:27;;;;;;;;;;;;;;;;;;4992553;28;19960;-81
2022/10/31 11:59:53;;;;;;;;;;;;;;;;;;4992577;28;19925;-81
2022/10/31 12:02:18;;;;;;;;;;;;;;;;;;4991912;28;20374;-81
2022/10/31 12:04:44;;;;;;;;;;;;;;;;;;4992116;28;19918;-81
2022/10/31 12:07:09;;;;;;;;;;;;;;;;;;4992321;28;20361;-81
2022/10/31 12:09:35;;;;;;;;;;;;;;;;;;4993463;28;19921;-81
2022/10/31 12:12:00;;;;;;;;;;;;;;;;;;4993619;28;19922;-80
2022/10/31 12:14:26;;;;;;;;;;;;;;;;;;4992953;28;19918;-80
2022/10/31 12:16:51;;;;;;;;;;;;;;;;;;4992887;28;20394;-80
2022/10/31 12:19:16;;;;;;;;;;;;;;;;;;4993329;28;20012;-80
2022/10/31 12:21:42;;;;;;;;;;;;;;;;;;4993286;28;19921;-80
2022/10/31 12:24:07;;;;;;;;;;;;;;;;;;4992732;28;20678;-80
2022/10/31 12:26:32;;;;;;;;;;;;;;;;;;4993341;28;20301;-80
2022/10/31 12:28:58;;;;;;;;;;;;;;;;;;4993498;28;19920;-80
2022/10/31 12:31:23;;;;;;;;;;;;;;;;;;4992141;28;20400;-80
2022/10/31 12:33:49;;;;;;;;;;;;;;;;;;4990799;28;19964;-81
2022/10/31 12:36:14;;;;;;;;;;;;;;;;;;4992488;28;20397;-79
2022/10/31 12:38:39;;;;;;;;;;;;;;;;;;5002178;28;19914;-80
2022/10/31 12:41:06;;;;;;;;;;;;;;;;;;4999134;28;19918;-81
2022/10/31 12:43:32;;;;;;;;;;;;;;;;;;4994172;28;19944;-80
2022/10/31 12:45:57;;;;;;;;;;;;;;;;;;4995631;28;19913;-81
2022/10/31 12:48:23;;;;;;;;;;;;;;;;;;4993745;28;19913;-81
2022/10/31 12:50:48;;;;;;;;;;;;;;;;;;4993876;28;20377;-81
2022/10/31 12:53:14;;;;;;;;;;;;;;;;;;4975016;28;19914;-80
2022/10/31 12:55:39;;;;;;;;;;;;;;;;;;4993043;28;19910;-81
2022/10/31 12:58:04;;;;;;;;;;;;;;;;;;4992727;28;20028;-80
2022/10/31 13:00:30;;;;;;;;;;;;;;;;;;4992578;28;19918;-80
2022/10/31 13:02:55;;;;;;;;;;;;;;;;;;4991312;28;20344;-80
2022/10/31 13:05:21;;;;;;;;;;;;;;;;;;4991581;28;19918;-81
2022/10/31 13:07:46;;;;;;;;;;;;;;;;;;4959462;28;20433;-82
2022/10/31 13:10:12;;;;;;;;;;;;;;;;;;4993039;28;19937;-80
2022/10/31 13:12:37;;;;;;;;;;;;;;;;;;4990957;28;20376;-80
2022/10/31 13:15:02;;;;;;;;;;;;;;;;;;4991206;28;19910;-81
2022/10/31 13:17:28;;;;;;;;;;;;;;;;;;4975486;28;19967;-81
2022/10/31 13:19:53;;;;;;;;;;;;;;;;;;4991268;28;19917;-81
2022/10/31 13:22:18;;;;;;;;;;;;;;;;;;4991097;28;20334;-81
2022/10/31 13:24:44;;;;;;;;;;;;;;;;;;4992590;28;19925;-81
2022/10/31 13:27:09;;;;;;;;;;;;;;;;;;4993423;28;19992;-80
2022/10/31 13:29:35;;;;;;;;;;;;;;;;;;4991460;28;20333;-80
2022/10/31 13:32:00;;;;;;;;;;;;;;;;;;4991849;28;19913;-81
2022/10/31 13:34:26;;;;;;;;;;;;;;;;;;4993541;28;19921;-80
2022/10/31 13:36:52;;;;;;;;;;;;;;;;;;4999071;28;19914;-81
2022/10/31 13:39:18;;;;;;;;;;;;;;;;;;4980477;28;19963;-81
2022/10/31 13:41:43;;;;;;;;;;;;;;;;;;4992520;28;20325;-80
2022/10/31 13:44:08;;;;;;;;;;;;;;;;;;4992101;28;19914;-81
2022/10/31 13:46:34;;;;;;;;;;;;;;;;;;4996327;28;19977;-81
2022/10/31 13:48:59;;;;;;;;;;;;;;;;;;4994851;28;19920;-82
2022/10/31 13:51:25;;;;;;;;;;;;;;;;;;4978832;28;19997;-81
2022/10/31 13:53:50;;;;;;;;;;;;;;;;;;4994632;28;20324;-81
2022/10/31 13:56:16;;;;;;;;;;;;;;;;;;4996184;28;19929;-82
2022/10/31 13:58:41;;;;;;;;;;;;;;;;;;4995072;28;19914;-81
2022/10/31 14:01:07;;;;;;;;;;;;;;;;;;4994823;28;19941;-82
2022/10/31 14:03:32;;;;;;;;;;;;;;;;;;4994424;28;20261;-81
2022/10/31 14:05:59;;;;;;;;;;;;;;;;;;4994673;28;20277;-82
2022/10/31 14:08:24;;;;;;;;;;;;;;;;;;4995912;28;19914;-80
2022/10/31 14:10:49;;;;;;;;;;;;;;;;;;4994775;28;19914;-82
2022/10/31 14:13:15;;;;;;;;;;;;;;;;;;4994327;28;19914;-80
2022/10/31 14:15:40;;;;;;;;;;;;;;;;;;4995609;28;20282;-82
2022/10/31 14:18:06;;;;;;;;;;;;;;;;;;4978298;28;19953;-81
2022/10/31 14:20:32;;;;;;;;;;;;;;;;;;4994416;28;19968;-82
2022/10/31 14:22:57;;;;;;;;;;;;;;;;;;4993640;28;19922;-82
2022/10/31 14:25:32;;;;;;;;;;;;;;;;;;4978848;28;19914;-81
2022/10/31 14:27:57;;;;;;;;;;;;;;;;;;4994084;28;19922;-81
2022/10/31 14:30:23;;;;;;;;;;;;;;;;;;4995473;28;19914;-81
2022/10/31 14:32:48;;;;;;;;;;;;;;;;;;4995102;28;20513;-80
2022/10/31 14:35:14;;;;;;;;;;;;;;;;;;4977833;28;19913;-81
2022/10/31 14:37:45;;;;;;;;;;;;;;;;;;4994076;28;19913;-81
2022/10/31 14:40:16;;;;;;;;;;;;;;;;;;4962199;28;19922;-81
2022/10/31 14:42:45;;;;;;;;;;;;;;;;;;4993802;28;20393;-82
2022/10/31 14:45:10;;;;;;;;;;;;;;;;;;4993747;28;19913;-81
2022/10/31 14:47:35;;;;;;;;;;;;;;;;;;4993843;28;19921;-80
2022/10/31 14:50:01;;;;;;;;;;;;;;;;;;4994113;28;19921;-81
2022/10/31 14:52:26;;;;;;;;;;;;;;;;;;4993303;28;19925;-80
2022/10/31 14:54:52;;;;;;;;;;;;;;;;;;4994782;28;20385;-81
2022/10/31 14:57:18;;;;;;;;;;;;;;;;;;4976579;28;19914;-81
2022/10/31 14:59:46;;;;;;;;;;;;;;;;;;4993536;28;19968;-81
2022/10/31 15:02:12;;;;;;;;;;;;;;;;;;4993284;28;20385;-82
2022/10/31 15:04:37;;;;;;;;;;;;;;;;;;4993230;28;19916;-80
2022/10/31 15:07:03;;;;;;;;;;;;;;;;;;4994828;28;19918;-80
2022/10/31 15:09:28;;;;;;;;;;;;;;;;;;4993706;28;20389;-81
2022/10/31 15:11:53;;;;;;;;;;;;;;;;;;4994510;28;19914;-80
2022/10/31 15:14:19;;;;;;;;;;;;;;;;;;4976984;28;20374;-81
2022/10/31 15:16:44;;;;;;;;;;;;;;;;;;4994789;28;19914;-82
2022/10/31 15:19:09;;;;;;;;;;;;;;;;;;4994533;28;19918;-81
2022/10/31 15:21:35;;;;;;;;;;;;;;;;;;4977131;28;19914;-80
2022/10/31 15:24:00;;;;;;;;;;;;;;;;;;4992905;28;20393;-82
2022/10/31 15:26:26;;;;;;;;;;;;;;;;;;4993252;28;20300;-81
2022/10/31 15:28:51;;;;;;;;;;;;;;;;;;4993492;28;19968;-81
2022/10/31 15:31:16;;;;;;;;;;;;;;;;;;4995267;28;19921;-83
2022/10/31 15:33:42;;;;;;;;;;;;;;;;;;4995351;28;20242;-80
2022/10/31 15:36:07;;;;;;;;;;;;;;;;;;5002753;28;19920;-80
2022/10/31 15:38:32;;;;;;;;;;;;;;;;;;4987366;28;19964;-81
2022/10/31 15:40:58;;;;;;;;;;;;;;;;;;4994993;28;20253;-79
2022/10/31 15:43:23;;;;;;;;;;;;;;;;;;4993318;28;20471;-83
2022/10/31 15:45:49;;;;;;;;;;;;;;;;;;4993307;28;19914;-82
2022/10/31 15:48:17;;;;;;;;;;;;;;;;;;4993863;28;19914;-81
2022/10/31 15:50:43;;;;;;;;;;;;;;;;;;4992508;28;19969;-83
2022/10/31 15:53:09;;;;;;;;;;;;;;;;;;4993435;28;20336;-81
2022/10/31 15:55:34;;;;;;;;;;;;;;;;;;4992405;28;19913;-80
2022/10/31 15:57:59;;;;;;;;;;;;;;;;;;4993737;28;19913;-81
2022/10/31 16:00:25;;;;;;;;;;;;;;;;;;4993614;28;20357;-82
2022/10/31 16:02:50;;;;;;;;;;;;;;;;;;4993209;28;20012;-83
2022/10/31 16:05:16;;;;;;;;;;;;;;;;;;4976643;28;19957;-81
2022/10/31 16:07:41;;;;;;;;;;;;;;;;;;4992164;28;20290;-79
2022/10/31 16:10:06;;;;;;;;;;;;;;;;;;4992501;28;20373;-81
2022/10/31 16:12:32;;;;;;;;;;;;;;;;;;4993170;28;19914;-81
2022/10/31 16:14:57;;;;;;;;;;;;;;;;;;4975689;28;19913;-82
2022/10/31 16:17:23;;;;;;;;;;;;;;;;;;4992281;28;20289;-82
2022/10/31 16:19:48;;;;;;;;;;;;;;;;;;4992509;28;19976;-82
2022/10/31 16:22:13;;;;;;;;;;;;;;;;;;4992428;28;19940;-82
2022/10/31 16:24:39;;;;;;;;;;;;;;;;;;4991948;28;20404;-81
2022/10/31 16:27:04;;;;;;;;;;;;;;;;;;4993811;28;19936;-82
2022/10/31 16:29:30;;;;;;;;;;;;;;;;;;4992614;28;20373;-82
2022/10/31 16:31:55;;;;;;;;;;;;;;;;;;4993819;28;19914;-83
2022/10/31 16:34:21;;;;;;;;;;;;;;;;;;4993521;28;20369;-82
2022/10/31 16:36:46;;;;;;;;;;;;;;;;;;4979889;28;19924;-84
2022/10/31 16:39:13;;;;;;;;;;;;;;;;;;4997421;28;19976;-80
2022/10/31 16:41:39;;;;;;;;;;;;;;;;;;4995116;28;19913;-80
2022/10/31 16:44:05;;;;;;;;;;;;;;;;;;4995491;28;19914;-82
2022/10/31 16:46:30;;;;;;;;;;;;;;;;;;4992150;28;19921;-80
2022/10/31 16:48:56;;;;;;;;;;;;;;;;;;4975907;28;20075;-81
2022/10/31 16:51:21;;;;;;;;;;;;;;;;;;4993386;28;19914;-82
2022/10/31 16:53:46;;;;;;;;;;;;;;;;;;4992708;28;20016;-82